高松 の空港の天気 - METARとTAF

高松空港 ( RJOT / TAK ) - 香川県高松市
飛行場実況気象(Metar)
観測時間04/24 21:00 JST (04/24 12:00 UTC)
風向・風速西 2m/s
視程4000m
天気現象弱いしゅう雨 もや
少しの雲 雲底高度 30m
全天の4割程度の雲 雲底高度 1520m
全天の8割程度の雲 雲底高度 2440m
気温18℃
湿度100%
気圧1004hPa
METARRJOT 241200Z 26003KT 4000 -SHRA BR FEW001 SCT050 BKN080 18/18 Q1004
過去の天気等 Google飛行場航空写真 Wunderground天気予報

過去48時間のMETAR

飛行場予報(TAF)
発表時間: 4/24 20:06 JST (4/24 11:06 UTC)
予報対象時間: 24日21時 JST ~ 26日3時 JST
風向・風速南南東 3m/s
視程6,000m
天気現象弱いしゅう雨
少しの雲 雲底高度 90m
全天の4割程度の雲 雲底高度 240m
全天の8割程度の雲 雲底高度 460m
24日21時 JST ~ 25日1時 JST に一時的に
視程2,000m
天気現象強いしゅう雨 もや 散在した霧
少しの雲 雲底高度 0m
全天の4割程度の雲 雲底高度 90m
全天の8割程度の雲 雲底高度 150m
少しの積乱雲 雲底高度 460m
25日0時 JST ~ 25日2時 JST に徐々に
風向・風速西 5m/s
25日1時 JST ~ 25日4時 JST に一時的に
視程4,000m
天気現象しゅう雨 もや
少しの雲 雲底高度 30m
全天の4割程度の雲 雲底高度 90m
全天の8割程度の雲 雲底高度 150m
TAF RJOT 241106Z 2412/2518 15005KT 6000 -SHRA FEW003 SCT008 BKN015
TEMPO 2412/2416 2000 +SHRA BR BCFG FEW000 SCT003 BKN005 FEW015CB
BECMG 2415/2417 26010KT
TEMPO 2416/2419 4000 SHRA BR FEW001 SCT003 BKN005
日本の空港のMETAR・TAFへのリンク

RJTT 東京国際空港
RJAA 新東京国際空港
RJBB 関西国際空港
RJOO 大阪空港
RJGG 中部国際空港
RJCC 新千歳空港
RJFF 福岡空港
ROAH 那覇空港


RJEC 旭川空港
RJCH 函館空港
RJCK 釧路空港
RJCM 女満別空港
RJCB 帯広空港
RJSA 青森空港
RJSS 仙台空港
RJSK 秋田空港
RJSF 福島空港
RJAH 茨城空港
RJSN 新潟空港
RJNT 富山空港
RJNK 小松飛行場
RJNS 静岡空港
RJOH 美保飛行場
RJOC 出雲空港
RJOB 岡山空港
RJOA 広島空港
RJOI 岩国飛行場
RJOT 高松空港
RJOM 松山空港
RJOK 高知空港
RJFR 北九州空港
RJFT 熊本空港
RJFU 長崎空港
RJFS 佐賀空港
RJFO 大分空港
RJFM 宮崎空港
RJFK 鹿児島空港
ROIG 石垣島空港
RJTY 横田飛行場
ROTM 普天間飛行場
RODN 嘉手納飛行場